| time (UTC) | temp C | wind direction | speed KPH | gust KPH | rain 1hr cm | rain 24hr cm | rain mn cm | humidity % | barometer mb |
| 20260505153050 | 12 | 234 | 3.2 | 12.9 | 0.00 | 0.00 | 0.00 | 81 | 1015.5 |
| 20260505151547 | 12 | 167 | 4.8 | 11.3 | 0.00 | 0.00 | 0.00 | 82 | 1015.4 |
| 20260505124553 | 12 | 0 | 3.2 | 16.1 | 0.00 | 0.00 | 0.00 | 83 | 1014.1 |
| 20260505123053 | 12 | 209 | 4.8 | 12.9 | 0.00 | 0.00 | 0.00 | 82 | 1014.0 |
| 20260505121556 | 12 | 195 | 4.8 | 14.5 | 0.00 | 0.00 | 0.00 | 83 | 1013.9 |
| 20260505120054 | 12 | 196 | 4.8 | 14.5 | 0.00 | 0.00 | 0.00 | 83 | 1013.8 |
| 20260505114555 | 12 | 142 | 6.4 | 17.7 | 0.00 | 0.00 | 0.00 | 83 | 1013.7 |
| 20260505113052 | 12 | 167 | 4.8 | 20.9 | 0.00 | 0.00 | 0.00 | 84 | 1013.7 |
| 20260505111548 | 12 | 190 | 3.2 | 16.1 | 0.00 | 0.00 | 0.00 | 84 | 1013.6 |
| 20260505101604 | 12 | 190 | 4.8 | 17.7 | 0.00 | 0.00 | 0.00 | 85 | 1013.3 |
| 20260505094546 | 12 | 151 | 6.4 | 17.7 | 0.00 | 0.00 | 0.00 | 85 | 1013.0 |
| 20260505093101 | 12 | 142 | 6.4 | 12.9 | 0.00 | 0.00 | 0.00 | 84 | 1013.0 |
| 20260505091546 | 12 | 199 | 1.6 | 14.5 | 0.00 | 0.00 | 0.00 | 84 | 1012.7 |
| 20260505090054 | 12 | 219 | 4.8 | 11.3 | 0.00 | 0.00 | 0.00 | 83 | 1012.7 |
| 20260505084550 | 12 | 209 | 3.2 | 11.3 | 0.00 | 0.00 | 0.00 | 83 | 1012.7 |
| 20260505083047 | 12 | 173 | 3.2 | 12.9 | 0.00 | 0.00 | 0.00 | 83 | 1012.5 |
| 20260505081558 | 12 | 218 | 3.2 | 11.3 | 0.00 | 0.00 | 0.00 | 82 | 1012.5 |
| 20260505080059 | 13 | 157 | 0.0 | 9.7 | 0.00 | 0.00 | 0.00 | 82 | 1012.4 |
| 20260505074550 | 13 | 200 | 4.8 | 14.5 | 0.00 | 0.00 | 0.00 | 81 | 1012.4 |
| 20260505073049 | 13 | 194 | 4.8 | 17.7 | 0.00 | 0.00 | 0.00 | 81 | 1012.2 |
| 20260505071555 | 13 | 213 | 1.6 | 11.3 | 0.00 | 0.00 | 0.00 | 80 | 1012.0 |
| 20260505070057 | 13 | 171 | 3.2 | 9.7 | 0.00 | 0.00 | 0.00 | 79 | 1011.9 |
| 20260505064550 | 14 | 207 | 3.2 | 11.3 | 0.00 | 0.00 | 0.00 | 78 | 1011.8 |
| 20260505063050 | 14 | 178 | 4.8 | 12.9 | 0.00 | 0.00 | 0.00 | 77 | 1011.6 |
| 20260505061546 | 15 | 208 | 3.2 | 11.3 | 0.00 | 0.00 | 0.00 | 76 | 1011.4 |
| 20260505060054 | 15 | 186 | 9.7 | 17.7 | 0.00 | 0.00 | 0.00 | 74 | 1011.3 |
| 20260505054552 | 16 | 196 | 8.0 | 19.3 | 0.00 | 0.00 | 0.00 | 72 | 1011.1 |
| 20260505053051 | 16 | 161 | 3.2 | 9.7 | 0.00 | 0.00 | 0.00 | 71 | 1011.0 |
| 20260505051549 | 16 | 204 | 4.8 | 12.9 | 0.00 | 0.00 | 0.00 | 70 | 1010.6 |
| 20260505041554 | 18 | 273 | 0.0 | 4.8 | 0.00 | 0.00 | 0.00 | 65 | 1010.3 |
| 20260505040056 | 19 | 275 | 1.6 | 6.4 | 0.00 | 0.00 | 0.00 | 63 | 1010.0 |
| 20260505034548 | 20 | 206 | 0.0 | 6.4 | 0.00 | 0.00 | 0.00 | 60 | 1009.7 |
| 20260505033047 | 20 | 226 | 3.2 | 12.9 | 0.00 | 0.00 | 0.00 | 58 | 1009.5 |
| 20260505031550 | 21 | 293 | 3.2 | 9.7 | 0.00 | 0.00 | 0.00 | 56 | 1009.4 |
| 20260505030045 | 21 | 270 | 4.8 | 9.7 | 0.00 | 0.00 | 0.00 | 54 | 1009.3 |
| 20260505024553 | 22 | 306 | 3.2 | 6.4 | 0.00 | 0.00 | 0.00 | 53 | 1009.1 |
| 20260505023054 | 23 | 167 | 1.6 | 12.9 | 0.00 | 0.00 | 0.00 | 51 | 1009.1 |
| 20260505021547 | 23 | 217 | 1.6 | 11.3 | 0.00 | 0.00 | 0.00 | 50 | 1009.0 |
| 20260505020054 | 23 | 291 | 0.0 | 4.8 | 0.00 | 0.00 | 0.00 | 49 | 1009.0 |
| 20260505014551 | 24 | 0 | 1.6 | 6.4 | 0.00 | 0.00 | 0.00 | 47 | 1009.0 |
| 20260505013043 | 24 | 132 | 1.6 | 6.4 | 0.00 | 0.00 | 0.00 | 44 | 1009.0 |
| 20260505011552 | 25 | 0 | 1.6 | 11.3 | 0.00 | 0.00 | 0.00 | 42 | 1009.1 |
| 20260505010109 | 25 | 188 | 1.6 | 11.3 | 0.00 | 0.00 | 0.00 | 41 | 1009.1 |
| 20260505004548 | 25 | 211 | 1.6 | 9.7 | 0.00 | 0.00 | 0.00 | 40 | 1009.1 |
| 20260505003048 | 25 | 180 | 3.2 | 9.7 | 0.00 | 0.00 | 0.00 | 40 | 1009.2 |
| 20260505001546 | 25 | 190 | 3.2 | 11.3 | 0.00 | 0.00 | 0.00 | 39 | 1009.3 |
| 20260505000048 | 26 | 283 | 3.2 | 9.7 | 0.00 | 0.00 | 0.00 | 38 | 1009.2 |
| 20260504234551 | 26 | 150 | 3.2 | 9.7 | 0.00 | 0.00 | 0.00 | 38 | 1009.3 |
| 20260504233048 | 26 | 219 | 4.8 | 14.5 | 0.00 | 0.00 | 0.00 | 36 | 1009.3 |
| 20260504231548 | 26 | 101 | 3.2 | 16.1 | 0.00 | 0.00 | 0.00 | 36 | 1009.4 |
| 20260504230053 | 26 | 175 | 3.2 | 12.9 | 0.00 | 0.00 | 0.00 | 36 | 1009.4 |
| 20260504224544 | 25 | 157 | 1.6 | 12.9 | 0.00 | 0.00 | 0.00 | 33 | 1009.6 |
| 20260504223057 | 25 | 236 | 4.8 | 11.3 | 0.00 | 0.00 | 0.00 | 34 | 1009.8 |
| 20260504221602 | 26 | 180 | 6.4 | 16.1 | 0.00 | 0.00 | 0.00 | 31 | 1010.0 |
| 20260504220051 | 25 | 265 | 4.8 | 12.9 | 0.00 | 0.00 | 0.00 | 35 | 1010.2 |
| 20260504214600 | 25 | 196 | 3.2 | 14.5 | 0.00 | 0.00 | 0.00 | 34 | 1010.2 |
| 20260504213103 | 25 | 217 | 6.4 | 17.7 | 0.00 | 0.00 | 0.00 | 36 | 1010.2 |
| 20260504211551 | 25 | 243 | 1.6 | 14.5 | 0.00 | 0.00 | 0.00 | 38 | 1010.3 |
| 20260504210051 | 25 | 270 | 3.2 | 14.5 | 0.00 | 0.00 | 0.00 | 36 | 1010.3 |
| 20260504204550 | 25 | 173 | 8.0 | 17.7 | 0.00 | 0.00 | 0.00 | 37 | 1010.3 |
| 20260504203052 | 25 | 245 | 3.2 | 11.3 | 0.00 | 0.00 | 0.00 | 38 | 1010.2 |
| 20260504201547 | 25 | 226 | 1.6 | 12.9 | 0.00 | 0.00 | 0.00 | 44 | 1010.3 |
| 20260504200052 | 23 | 213 | 4.8 | 12.9 | 0.00 | 0.00 | 0.00 | 44 | 1010.2 |
| 20260504194554 | 24 | 279 | 3.2 | 12.9 | 0.00 | 0.00 | 0.00 | 44 | 1010.2 |
| 20260504193050 | 24 | 22 | 1.6 | 11.3 | 0.00 | 0.00 | 0.00 | 37 | 1010.3 |
| 20260504191550 | 24 | 269 | 4.8 | 11.3 | 0.00 | 0.00 | 0.00 | 39 | 1010.6 |
| 20260504190050 | 23 | 228 | 1.6 | 11.3 | 0.00 | 0.00 | 0.00 | 41 | 1010.8 |
| 20260504184550 | 23 | 173 | 4.8 | 12.9 | 0.00 | 0.00 | 0.00 | 42 | 1010.8 |
| 20260504183053 | 22 | 136 | 1.6 | 11.3 | 0.00 | 0.00 | 0.00 | 43 | 1010.9 |
| 20260504181552 | 23 | 144 | 1.6 | 9.7 | 0.00 | 0.00 | 0.00 | 43 | 1010.8 |
| 20260504180052 | 22 | 263 | 1.6 | 11.3 | 0.00 | 0.00 | 0.00 | 46 | 1010.8 |
| 20260504174550 | 21 | 161 | 3.2 | 8.0 | 0.00 | 0.00 | 0.00 | 47 | 1010.9 |
| 20260504173052 | 22 | 0 | 1.6 | 6.4 | 0.00 | 0.00 | 0.00 | 50 | 1010.9 |
| 20260504171558 | 21 | 147 | 3.2 | 8.0 | 0.00 | 0.00 | 0.00 | 53 | 1010.9 |